createdAt,value
2023-02-11T00:00:51.137Z,8.45
2023-02-11T00:04:15.007Z,8.44
2023-02-11T00:07:38.578Z,8.44
2023-02-11T00:11:16.207Z,8.44
2023-02-11T00:15:00.336Z,8.43
2023-02-11T00:22:11.765Z,8.43
2023-02-11T00:25:42.730Z,8.42
2023-02-11T00:29:06.085Z,8.41
2023-02-11T00:32:34.936Z,8.40
2023-02-11T00:36:05.879Z,8.39
2023-02-11T00:39:27.908Z,8.38
2023-02-11T00:42:53.956Z,8.39
2023-02-11T00:46:22.302Z,8.38
2023-02-11T00:49:46.704Z,8.33
2023-02-11T00:53:08.626Z,8.33
2023-02-11T00:56:45.654Z,8.31
2023-02-11T01:00:08.602Z,8.32
2023-02-11T01:03:31.557Z,8.33
2023-02-11T01:06:54.305Z,8.30
2023-02-11T01:10:16.232Z,8.30
2023-02-11T01:13:40.107Z,8.31
2023-02-11T01:17:19.777Z,8.33
2023-02-11T01:20:45.184Z,8.32
2023-02-11T01:24:12.747Z,8.33
2023-02-11T01:27:38.110Z,8.32
2023-02-11T01:31:03.940Z,8.31
2023-02-11T01:34:30.220Z,8.31
2023-02-11T01:37:52.197Z,8.31
2023-02-11T01:41:25.748Z,8.28
2023-02-11T01:44:54.786Z,8.27
2023-02-11T01:48:47.193Z,8.28
2023-02-11T01:52:26.877Z,8.29
2023-02-11T01:56:07.415Z,8.28
2023-02-11T01:59:39.734Z,8.29
2023-02-11T02:03:16.888Z,8.28
2023-02-11T02:06:54.923Z,8.28
2023-02-11T02:10:21.422Z,8.29
2023-02-11T02:13:43.238Z,8.29
2023-02-11T02:17:21.306Z,8.29
2023-02-11T02:21:11.246Z,8.28
2023-02-11T02:25:13.415Z,8.22
2023-02-11T02:29:00.376Z,8.17
2023-02-11T02:33:23.338Z,8.15
2023-02-11T02:36:59.194Z,8.14
2023-02-11T02:40:46.650Z,8.14
2023-02-11T02:44:09.506Z,8.15
2023-02-11T02:47:34.952Z,8.16
2023-02-11T02:51:43.049Z,8.16
2023-02-11T02:55:25.301Z,8.15
2023-02-11T02:59:11.668Z,8.16
2023-02-11T03:03:01.120Z,8.18
2023-02-11T03:06:39.043Z,8.19
2023-02-11T03:10:14.219Z,8.19
2023-02-11T03:13:46.030Z,8.21
2023-02-11T03:17:27.618Z,8.21
2023-02-11T03:21:00.950Z,8.23
2023-02-11T03:24:36.948Z,8.22
2023-02-11T03:29:04.526Z,8.21
2023-02-11T03:32:36.666Z,8.24
2023-02-11T03:36:07.648Z,8.25
2023-02-11T03:39:36.835Z,8.24
2023-02-11T03:43:04.642Z,8.23
2023-02-11T03:46:34.843Z,8.19
2023-02-11T03:49:59.293Z,8.20
2023-02-11T03:53:22.831Z,8.22
2023-02-11T03:57:08.836Z,8.24
2023-02-11T04:00:38.284Z,8.25
2023-02-11T04:04:00.142Z,8.20
2023-02-11T04:07:22.119Z,8.20
2023-02-11T04:10:43.921Z,8.20
2023-02-11T04:14:06.801Z,8.21
2023-02-11T04:17:28.685Z,8.21
2023-02-11T04:21:03.215Z,8.20
2023-02-11T04:24:28.521Z,8.19
2023-02-11T04:27:52.426Z,8.18
2023-02-11T04:31:14.717Z,8.17
2023-02-11T04:34:36.658Z,8.18
2023-02-11T04:37:58.546Z,8.19
2023-02-11T04:41:20.847Z,8.19
2023-02-11T04:44:44.852Z,8.19
2023-02-11T04:48:14.274Z,8.17
2023-02-11T04:51:37.179Z,8.15
2023-02-11T04:55:00.643Z,8.13
2023-02-11T04:58:26.987Z,8.09
2023-02-11T05:01:50.129Z,8.05
2023-02-11T05:05:12.324Z,8.07
2023-02-11T05:08:35.293Z,8.09
2023-02-11T05:11:57.090Z,8.07
2023-02-11T05:15:22.947Z,8.06
2023-02-11T05:18:47.538Z,8.07
2023-02-11T05:22:11.305Z,8.04
2023-02-11T05:25:38.130Z,8.00
2023-02-11T05:29:08.737Z,8.02
2023-02-11T05:32:33.858Z,8.05
2023-02-11T05:36:04.147Z,8.04
2023-02-11T05:39:38.819Z,8.05
2023-02-11T05:43:00.781Z,8.05
2023-02-11T05:46:24.450Z,8.07
2023-02-11T05:49:46.710Z,8.07
2023-02-11T05:53:10.491Z,8.06
2023-02-11T05:56:35.592Z,8.05
2023-02-11T05:59:57.604Z,8.04
2023-02-11T06:03:22.390Z,8.05
2023-02-11T06:06:49.359Z,8.05
2023-02-11T06:10:14.729Z,8.07
2023-02-11T06:13:36.556Z,8.09
2023-02-11T06:16:59.371Z,8.12
2023-02-11T06:20:22.917Z,8.15
2023-02-11T06:23:45.448Z,8.15
2023-02-11T06:27:39.313Z,8.13
2023-02-11T06:31:09.330Z,8.15
2023-02-11T06:34:31.446Z,8.16
2023-02-11T06:38:09.717Z,8.19
2023-02-11T06:41:31.865Z,8.23
2023-02-11T06:44:53.761Z,8.25
2023-02-11T06:48:16.455Z,8.28
2023-02-11T06:51:38.951Z,8.33
2023-02-11T06:55:00.812Z,8.35
2023-02-11T06:58:22.772Z,8.40
2023-02-11T07:01:45.642Z,8.44
2023-02-11T07:05:16.919Z,8.48
2023-02-11T07:08:43.627Z,8.51
2023-02-11T07:12:07.769Z,8.54
2023-02-11T07:15:29.717Z,8.56
2023-02-11T07:18:52.801Z,8.58
2023-02-11T07:22:14.659Z,8.59
2023-02-11T07:25:38.110Z,8.59
2023-02-11T07:29:02.247Z,8.59
2023-02-11T07:32:24.359Z,8.59
2023-02-11T07:35:51.392Z,8.60
2023-02-11T07:39:16.831Z,8.59
2023-02-11T07:42:44.695Z,8.59
2023-02-11T07:46:11.625Z,8.58
2023-02-11T07:49:39.884Z,8.58
2023-02-11T07:53:03.659Z,8.59
2023-02-11T07:56:29.623Z,8.61
2023-02-11T07:59:51.473Z,8.63
2023-02-11T08:03:13.294Z,8.65
2023-02-11T08:06:40.851Z,8.67
2023-02-11T08:10:02.832Z,8.67
2023-02-11T08:13:27.143Z,8.69
2023-02-11T08:16:51.666Z,8.71
2023-02-11T08:20:14.529Z,8.74
2023-02-11T08:23:38.974Z,8.78
2023-02-11T08:27:01.523Z,8.80
2023-02-11T08:30:25.096Z,8.83
2023-02-11T08:33:58.322Z,8.84
2023-02-11T08:37:23.027Z,8.84
2023-02-11T08:40:48.299Z,8.83
2023-02-11T08:44:18.727Z,8.82
2023-02-11T08:47:41.202Z,8.80
2023-02-11T08:51:15.275Z,8.81
2023-02-11T08:54:44.721Z,8.83
2023-02-11T08:58:06.930Z,8.85
2023-02-11T09:01:31.171Z,8.87
2023-02-11T09:04:53.026Z,8.91
2023-02-11T09:08:15.449Z,8.94
2023-02-11T09:11:37.408Z,8.96
2023-02-11T09:14:59.440Z,8.96
2023-02-11T09:18:23.578Z,8.97
2023-02-11T09:21:46.491Z,8.98
2023-02-11T09:25:08.675Z,8.99
2023-02-11T09:28:30.635Z,9.01
2023-02-11T09:31:52.871Z,9.02
2023-02-11T09:35:18.093Z,9.02
2023-02-11T09:38:40.001Z,8.98
2023-02-11T09:42:45.005Z,8.98
2023-02-11T09:46:13.717Z,8.96
2023-02-11T09:49:48.009Z,8.96
2023-02-11T09:53:31.785Z,8.95
2023-02-11T09:56:55.730Z,8.93
2023-02-11T10:00:20.529Z,8.93
2023-02-11T10:03:45.270Z,8.93
2023-02-11T10:07:33.142Z,8.95
2023-02-11T10:11:32.450Z,8.96
2023-02-11T10:15:03.249Z,8.95
2023-02-11T10:18:25.009Z,8.95
2023-02-11T10:22:06.093Z,8.95
2023-02-11T10:25:37.341Z,8.93
2023-02-11T10:29:02.504Z,8.92
2023-02-11T10:32:52.059Z,8.93
2023-02-11T10:36:15.451Z,8.92
2023-02-11T10:39:40.242Z,8.96
2023-02-11T10:43:05.194Z,9.02
2023-02-11T10:46:31.990Z,9.00
2023-02-11T10:49:53.914Z,8.99
2023-02-11T10:53:22.391Z,8.97
2023-02-11T10:56:54.766Z,8.95
2023-02-11T11:00:40.344Z,8.94
2023-02-11T11:04:02.411Z,8.94
2023-02-11T11:07:34.180Z,8.93
2023-02-11T11:11:10.288Z,8.93
2023-02-11T11:14:32.102Z,8.93
2023-02-11T11:18:22.603Z,8.93
2023-02-11T11:21:47.491Z,8.92
2023-02-11T11:25:26.996Z,8.90
2023-02-11T11:29:01.460Z,8.88
2023-02-11T11:32:29.788Z,8.90
2023-02-11T11:35:59.971Z,8.99
2023-02-11T11:39:25.587Z,9.05
2023-02-11T11:43:04.879Z,9.06
2023-02-11T11:46:35.970Z,9.07
2023-02-11T11:50:12.466Z,9.06
2023-02-11T11:53:51.449Z,9.06
2023-02-11T11:57:17.604Z,9.06
2023-02-11T12:00:52.473Z,9.07
2023-02-11T12:04:23.482Z,9.07
2023-02-11T12:08:00.723Z,9.07
2023-02-11T12:11:38.655Z,9.08
2023-02-11T12:15:07.452Z,9.09
2023-02-11T12:18:42.040Z,9.10
2023-02-11T12:22:18.876Z,9.11
2023-02-11T12:25:50.959Z,9.12
2023-02-11T12:29:22.235Z,9.12
2023-02-11T12:33:07.097Z,9.11
2023-02-11T12:36:55.328Z,9.11
2023-02-11T12:40:17.198Z,9.10
2023-02-11T12:43:41.299Z,9.11
2023-02-11T12:47:14.499Z,9.11
2023-02-11T12:50:42.442Z,9.10
2023-02-11T12:54:32.895Z,9.10
2023-02-11T12:57:57.999Z,9.12
2023-02-11T13:01:27.378Z,9.13
2023-02-11T13:04:56.175Z,9.14
2023-02-11T13:08:43.796Z,9.14
2023-02-11T13:12:25.830Z,9.15
2023-02-11T13:15:52.282Z,9.22
2023-02-11T13:19:14.159Z,9.28
2023-02-11T13:22:51.182Z,9.35
2023-02-11T13:26:47.748Z,9.45
2023-02-11T13:30:30.584Z,9.47
2023-02-11T13:33:53.228Z,9.50
2023-02-11T13:37:23.793Z,9.53
2023-02-11T13:40:45.835Z,9.54
2023-02-11T13:44:10.778Z,9.62
2023-02-11T13:47:34.227Z,9.68
2023-02-11T13:51:06.183Z,9.78
2023-02-11T13:54:34.873Z,9.88
2023-02-11T13:58:05.992Z,10.01
2023-02-11T14:02:12.539Z,10.03
2023-02-11T14:05:53.448Z,10.07
2023-02-11T14:09:18.108Z,10.09
2023-02-11T14:12:42.584Z,10.01
2023-02-11T14:16:35.599Z,9.70
2023-02-11T14:20:01.970Z,9.39
2023-02-11T14:23:28.324Z,9.18
2023-02-11T14:27:23.264Z,9.01
2023-02-11T14:31:10.907Z,8.91
2023-02-11T14:34:40.839Z,8.89
2023-02-11T14:38:12.841Z,8.87
2023-02-11T14:41:46.444Z,8.85
2023-02-11T14:45:11.691Z,8.81
2023-02-11T14:48:35.339Z,8.77
2023-02-11T14:52:27.417Z,8.77
2023-02-11T14:55:54.584Z,8.81
2023-02-11T14:59:26.160Z,8.83
2023-02-11T15:02:48.697Z,8.86
2023-02-11T15:06:16.951Z,8.86
2023-02-11T15:09:46.698Z,8.90
2023-02-11T15:13:09.085Z,8.94
2023-02-11T15:16:32.568Z,9.00
2023-02-11T15:19:57.462Z,9.05
2023-02-11T15:23:27.556Z,9.09
2023-02-11T15:27:11.385Z,9.10
2023-02-11T15:30:36.727Z,9.13
2023-02-11T15:34:09.755Z,9.14
2023-02-11T15:37:31.670Z,9.17
2023-02-11T15:40:58.505Z,9.19
2023-02-11T15:44:30.506Z,9.22
2023-02-11T15:48:06.524Z,9.24
2023-02-11T15:51:38.068Z,9.26
2023-02-11T15:55:03.554Z,9.26
2023-02-11T15:58:25.418Z,9.27
2023-02-11T16:01:48.158Z,9.28
2023-02-11T16:05:27.246Z,9.27
2023-02-11T16:09:11.895Z,9.27
2023-02-11T16:12:33.670Z,9.28
2023-02-11T16:16:13.751Z,9.29
2023-02-11T16:19:37.761Z,9.29
2023-02-11T16:23:00.297Z,9.29
2023-02-11T16:26:33.114Z,9.30
2023-02-11T16:29:55.020Z,9.32
2023-02-11T16:33:16.864Z,9.33
2023-02-11T16:36:41.440Z,9.34
2023-02-11T16:40:03.287Z,9.36
2023-02-11T16:43:25.156Z,9.37
2023-02-11T16:46:47.527Z,9.38
2023-02-11T16:50:11.654Z,9.39
2023-02-11T16:53:34.897Z,9.40
2023-02-11T16:56:57.578Z,9.41
2023-02-11T17:00:19.934Z,9.42
2023-02-11T17:03:43.762Z,9.43
2023-02-11T17:07:05.790Z,9.44
2023-02-11T17:10:27.686Z,9.44
2023-02-11T17:13:49.617Z,9.46
2023-02-11T17:17:12.046Z,9.46
2023-02-11T17:20:33.913Z,9.46
2023-02-11T17:23:55.843Z,9.47
2023-02-11T17:27:25.104Z,9.48
2023-02-11T17:30:54.399Z,9.48
2023-02-11T17:34:16.944Z,9.49
2023-02-11T17:37:38.779Z,9.50
2023-02-11T17:41:01.809Z,9.51
2023-02-11T17:44:23.776Z,9.52
2023-02-11T17:47:46.238Z,9.52
2023-02-11T17:51:32.659Z,9.53
2023-02-11T17:54:55.461Z,9.54
2023-02-11T17:58:17.297Z,9.55
2023-02-11T18:01:43.751Z,9.55
2023-02-11T18:05:06.508Z,9.56
2023-02-11T18:08:28.567Z,9.58
2023-02-11T18:11:52.683Z,9.59
2023-02-11T18:15:14.551Z,9.60
2023-02-11T18:18:36.385Z,9.61
2023-02-11T18:22:00.958Z,9.62
2023-02-11T18:25:24.005Z,9.62
2023-02-11T18:28:46.300Z,9.64
2023-02-11T18:32:08.352Z,9.66
2023-02-11T18:35:30.239Z,9.68
2023-02-11T18:38:57.109Z,9.70
2023-02-11T18:42:18.926Z,9.71
2023-02-11T18:45:45.269Z,9.72
2023-02-11T18:49:07.323Z,9.74
2023-02-11T18:52:29.217Z,9.75
2023-02-11T18:55:52.228Z,9.77
2023-02-11T18:59:14.509Z,9.78
2023-02-11T19:02:37.216Z,9.79
2023-02-11T19:05:59.058Z,9.80
2023-02-11T19:09:21.073Z,9.82
2023-02-11T19:12:43.913Z,9.83
2023-02-11T19:16:22.160Z,9.84
2023-02-11T19:19:44.163Z,9.85
2023-02-11T19:23:05.981Z,9.86
2023-02-11T19:26:29.239Z,9.88
2023-02-11T19:29:51.164Z,9.91
2023-02-11T19:33:12.970Z,9.97
2023-02-11T19:36:37.160Z,10.06
2023-02-11T19:39:58.970Z,10.12
2023-02-11T19:43:20.948Z,10.16
2023-02-11T19:46:43.203Z,10.22
2023-02-11T19:50:06.425Z,10.27
2023-02-11T19:53:28.295Z,10.31
2023-02-11T19:56:50.297Z,10.35
2023-02-11T20:00:12.770Z,10.39
2023-02-11T20:03:35.066Z,10.44
2023-02-11T20:06:56.891Z,10.48
2023-02-11T20:10:18.844Z,10.53
2023-02-11T20:13:40.765Z,10.57
2023-02-11T20:17:06.788Z,10.61
2023-02-11T20:20:28.678Z,10.65
2023-02-11T20:23:51.421Z,10.68
2023-02-11T20:27:13.606Z,10.70
2023-02-11T20:30:37.587Z,10.77
2023-02-11T20:34:01.247Z,10.91
2023-02-11T20:37:23.053Z,11.05
2023-02-11T20:40:45.085Z,11.13
2023-02-11T20:44:09.955Z,11.20
2023-02-11T20:47:31.756Z,11.25
2023-02-11T20:50:54.265Z,11.30
2023-02-11T20:54:22.802Z,11.30
2023-02-11T20:57:46.990Z,11.28
2023-02-11T21:01:17.093Z,11.23
2023-02-11T21:04:39.971Z,11.19
2023-02-11T21:08:23.805Z,11.15
2023-02-11T21:11:45.780Z,11.09
2023-02-11T21:15:09.760Z,11.04
2023-02-11T21:18:32.003Z,11.00
2023-02-11T21:21:58.741Z,10.96
2023-02-11T21:25:24.307Z,10.92
2023-02-11T21:28:52.931Z,10.87
2023-02-11T21:32:21.119Z,10.82
2023-02-11T21:35:43.966Z,10.77
2023-02-11T21:39:54.210Z,10.73
2023-02-11T21:43:02.794Z,10.66
2023-02-11T21:46:25.079Z,10.59
2023-02-11T21:49:46.950Z,10.55
2023-02-11T21:53:09.140Z,10.52
2023-02-11T21:56:36.894Z,10.47
2023-02-11T21:59:58.783Z,10.43
2023-02-11T22:03:20.707Z,10.39
2023-02-11T22:06:42.538Z,10.35
2023-02-11T22:10:05.034Z,10.33
2023-02-11T22:13:30.613Z,10.29
2023-02-11T22:16:52.591Z,10.23
2023-02-11T22:20:16.153Z,10.21
2023-02-11T22:23:39.328Z,10.21
2023-02-11T22:27:01.527Z,10.18
2023-02-11T22:30:23.400Z,10.15
2023-02-11T22:33:46.385Z,10.13
2023-02-11T22:37:08.452Z,10.12
2023-02-11T22:40:30.315Z,10.11
2023-02-11T22:43:52.095Z,10.10
2023-02-11T22:47:14.020Z,10.09
2023-02-11T22:50:35.876Z,10.07
2023-02-11T22:54:03.287Z,10.05
2023-02-11T22:57:25.052Z,10.00
2023-02-11T23:00:46.941Z,9.96
2023-02-11T23:04:11.681Z,9.90
2023-02-11T23:07:33.614Z,9.85
2023-02-11T23:10:55.938Z,9.81
2023-02-11T23:14:17.710Z,9.76
2023-02-11T23:17:39.464Z,9.72
2023-02-11T23:21:11.315Z,9.68
2023-02-11T23:24:34.131Z,9.62
2023-02-11T23:27:56.138Z,9.60
2023-02-11T23:31:24.078Z,9.59
2023-02-11T23:34:46.020Z,9.55
2023-02-11T23:38:07.878Z,9.53
2023-02-11T23:41:29.891Z,9.50
2023-02-11T23:44:51.753Z,9.49
2023-02-11T23:48:13.644Z,9.47
2023-02-11T23:51:35.453Z,9.45
2023-02-11T23:54:57.212Z,9.43
2023-02-11T23:58:19.096Z,9.40
